LCBT2: Wolf Creek

Data processed at Wed May 22 2019 23:50


All information presented herein is the property of the government of the United States of America and may be revised or deleted at any time without prior notice.
Dissemination of this information without the expressed written consent of the Public Affairs Office, Tulsa District U.S. Army Corps of Engineers is strictly prohibited.
These data are gathered electronically and, as presented, have not undergone any form of quality control. These data are not guaranteed to be valid or correct.
Go to home page.
Go to station list.
Go to home page.

Downstream station:


Previous Day
Next Day
Current Day
    
SHEF ID:       LCBT2     Wolf Ck at Lipscomb, TX
STATION TYPE:  
Regulating: Stage =     9.50, Flow =     2021

               PRECIP     STAGE  RIV-FLOW  BAT-LOAD
                   in        ft       cfs      volt
              Ccp-Rev   Ccp-Rev   Ccp-Rev   Ccp-Rev
(US/Central)
05/22 00:00      0.00      6.79        78     12.81
05/22 01:00      0.00      7.01       111     12.73
05/22 02:00      0.00      7.07       123     12.73
05/22 03:00      0.00      7.06       121     12.73
05/22 04:00      0.00      7.04       117     12.73
05/22 05:00      0.00      7.01       111     12.65
05/22 06:00      0.00      6.99       107     12.65
05/22 07:00      0.00      6.96       102     12.65
05/22 08:00      0.00      6.95       100     12.65
05/22 09:00      0.00      6.93        96     12.73
05/22 10:00      0.00      6.91        93     12.81
05/22 11:00      0.00      6.90        92     13.05
05/22 12:00      0.00      6.91        93     13.29
05/22 13:00      0.00      6.95       100     13.44
05/22 14:00      0.00      7.01       111     13.29
05/22 15:00      0.00      7.06       121     13.21
05/22 16:00      0.00      7.09       127     13.13
05/22 17:00      0.00      7.11       131     13.13
05/22 18:00      0.00      7.11       131     13.05
05/22 19:00      0.00      7.09       127     13.05
05/22 20:00      0.00      7.08       125     12.97
05/22 21:00      0.00      7.06       121     12.89
05/22 22:00      0.00      7.04       117     12.81
05/22 23:00      ----      ----      ----      ----